Time;durP1;ratioP1;P1;durP2;ratioP2;P2;SDS_P1;SDS_P2;PMS_P1;PMS_P2;Temp;Humidity;BMP_temperature;BMP_pressure;BME280_temperature;BME280_humidity;BME280_pressure;Samples;Min_cycle;Max_cycle;Signal;HPM_P1;HPM_P2
2023/03/12 00:00:02;;;;;;;9.27;5.10;;;;;;;;;;5092735;28;20079;-62
2023/03/12 00:02:29;;;;;;;7.97;5.32;;;;;;;;;;5107994;28;20078;-62
2023/03/12 00:04:55;;;;;;;7.40;4.68;;;;;;;;;;5111880;28;20389;-62
2023/03/12 00:07:21;;;;;;;11.13;5.10;;;;;;;;;;5111437;28;20050;-62
2023/03/12 00:09:47;;;;;;;7.90;5.30;;;;;;;;;;5112307;28;20393;-62
2023/03/12 00:12:13;;;;;;;6.80;4.72;;;;;;;;;;5112728;28;20096;-62
2023/03/12 00:14:39;;;;;;;7.40;5.22;;;;;;;;;;5112262;28;20530;-62
2023/03/12 00:17:05;;;;;;;8.52;4.80;;;;;;;;;;5106946;27;20070;-62
2023/03/12 00:19:31;;;;;;;6.07;4.78;;;;;;;;;;5104024;28;20071;-62
2023/03/12 00:21:57;;;;;;;13.77;5.22;;;;;;;;;;5102982;28;20178;-62
2023/03/12 00:24:23;;;;;;;8.70;5.32;;;;;;;;;;5104723;28;20055;-62
2023/03/12 00:26:49;;;;;;;6.90;4.90;;;;;;;;;;5098614;28;20082;-62
2023/03/12 00:29:15;;;;;;;7.13;5.00;;;;;;;;;;5092638;28;20087;-62
2023/03/12 00:31:41;;;;;;;7.50;5.30;;;;;;;;;;5092322;28;20040;-62
2023/03/12 00:34:07;;;;;;;9.15;5.28;;;;;;;;;;5096527;28;20112;-62
2023/03/12 00:36:33;;;;;;;9.25;5.07;;;;;;;;;;5113218;28;20179;-62
2023/03/12 00:38:59;;;;;;;7.82;4.85;;;;;;;;;;5112341;28;20438;-62
2023/03/12 00:41:26;;;;;;;5.97;4.82;;;;;;;;;;5112913;28;20046;-62
2023/03/12 00:43:52;;;;;;;9.23;4.82;;;;;;;;;;5112992;28;20500;-62
2023/03/12 00:46:18;;;;;;;7.50;4.80;;;;;;;;;;5112191;28;20052;-62
2023/03/12 00:48:44;;;;;;;8.55;5.00;;;;;;;;;;5095673;28;20044;-62
2023/03/12 00:51:10;;;;;;;7.50;4.63;;;;;;;;;;5095619;28;20062;-62
2023/03/12 00:53:36;;;;;;;9.30;4.47;;;;;;;;;;5112156;28;20561;-62
2023/03/12 00:56:03;;;;;;;7.53;5.10;;;;;;;;;;5112811;28;20079;-62
2023/03/12 00:58:29;;;;;;;7.65;4.90;;;;;;;;;;5112276;28;20041;-62
2023/03/12 01:00:55;;;;;;;6.68;4.18;;;;;;;;;;5112112;28;20118;-62
2023/03/12 01:03:21;;;;;;;7.82;4.93;;;;;;;;;;5112584;28;20135;-62
2023/03/12 01:05:52;;;;;;;11.07;5.10;;;;;;;;;;5112700;28;20520;-62
2023/03/12 01:08:19;;;;;;;8.83;4.67;;;;;;;;;;5111979;28;20040;-62
2023/03/12 01:10:45;;;;;;;8.90;5.18;;;;;;;;;;5093964;28;20217;-62
2023/03/12 01:13:11;;;;;;;8.50;4.85;;;;;;;;;;5112219;28;20579;-62
2023/03/12 01:15:39;;;;;;;6.55;4.72;;;;;;;;;;5093630;28;20031;-62
2023/03/12 01:18:05;;;;;;;8.43;5.13;;;;;;;;;;5112268;28;20039;-62
2023/03/12 01:20:31;;;;;;;7.13;4.93;;;;;;;;;;5112100;28;20332;-62
2023/03/12 01:22:57;;;;;;;9.93;5.03;;;;;;;;;;5111044;28;20055;-62
2023/03/12 01:25:23;;;;;;;7.82;4.78;;;;;;;;;;5096480;28;20027;-62
2023/03/12 01:27:49;;;;;;;10.63;5.82;;;;;;;;;;5112311;28;20432;-62
2023/03/12 01:30:15;;;;;;;10.57;5.63;;;;;;;;;;5111410;28;20119;-62
2023/03/12 01:32:41;;;;;;;9.20;4.95;;;;;;;;;;5112112;28;20473;-62
2023/03/12 01:35:07;;;;;;;8.52;4.60;;;;;;;;;;5094065;28;20122;-62
2023/03/12 01:37:33;;;;;;;7.72;5.30;;;;;;;;;;5111079;28;20048;-62
2023/03/12 01:39:59;;;;;;;7.35;4.88;;;;;;;;;;5111926;28;20035;-62
2023/03/12 01:42:26;;;;;;;6.55;4.70;;;;;;;;;;5111877;28;20409;-62
2023/03/12 01:44:58;;;;;;;5.47;4.35;;;;;;;;;;5111509;28;20166;-62
2023/03/12 01:47:25;;;;;;;5.63;4.30;;;;;;;;;;5105715;28;20047;-62
2023/03/12 01:49:52;;;;;;;7.32;4.80;;;;;;;;;;5091401;28;20042;-62
2023/03/12 01:52:21;;;;;;;7.07;4.53;;;;;;;;;;5090733;28;20108;-62
2023/03/12 01:54:52;;;;;;;8.65;4.72;;;;;;;;;;5091379;28;20042;-62
2023/03/12 01:57:22;;;;;;;10.88;4.28;;;;;;;;;;5091090;28;20048;-62
2023/03/12 01:59:49;;;;;;;8.85;4.45;;;;;;;;;;5090549;28;20195;-62
2023/03/12 02:02:18;;;;;;;7.57;4.65;;;;;;;;;;5089952;28;20036;-62
2023/03/12 02:04:46;;;;;;;7.75;4.53;;;;;;;;;;5090879;28;20040;-62
2023/03/12 02:07:13;;;;;;;6.20;4.43;;;;;;;;;;5090488;28;20036;-62
2023/03/12 02:09:41;;;;;;;9.10;4.57;;;;;;;;;;5090971;28;20090;-62
2023/03/12 02:12:08;;;;;;;7.47;4.38;;;;;;;;;;5090862;28;20079;-62
2023/03/12 02:14:34;;;;;;;7.65;4.78;;;;;;;;;;5090316;28;20570;-62
2023/03/12 02:17:00;;;;;;;7.00;4.65;;;;;;;;;;5090978;28;20147;-62
2023/03/12 02:19:45;;;;;;;9.38;5.30;;;;;;;;;;5090602;28;20042;-62
2023/03/12 02:22:11;;;;;;;8.48;4.72;;;;;;;;;;5090081;28;20048;-62
2023/03/12 02:24:37;;;;;;;7.15;4.68;;;;;;;;;;5104642;28;20090;-62
2023/03/12 02:27:04;;;;;;;8.18;5.00;;;;;;;;;;5092440;28;20075;-62
2023/03/12 02:29:31;;;;;;;13.00;5.72;;;;;;;;;;5089754;28;20093;-62
2023/03/12 02:31:58;;;;;;;7.05;4.50;;;;;;;;;;5090607;28;20389;-62
2023/03/12 02:34:24;;;;;;;8.90;5.10;;;;;;;;;;5090601;28;20052;-62
2023/03/12 02:36:50;;;;;;;7.43;5.13;;;;;;;;;;5089914;28;20401;-62
2023/03/12 02:39:16;;;;;;;8.93;5.35;;;;;;;;;;5090400;28;20055;-62
2023/03/12 02:41:44;;;;;;;10.05;5.65;;;;;;;;;;5090312;28;20108;-62
2023/03/12 02:44:12;;;;;;;7.90;5.28;;;;;;;;;;5089789;28;20076;-62
2023/03/12 02:46:39;;;;;;;8.43;5.40;;;;;;;;;;5090350;28;20043;-62
2023/03/12 02:49:06;;;;;;;9.93;5.65;;;;;;;;;;5109896;28;20050;-62
2023/03/12 02:51:32;;;;;;;14.40;6.10;;;;;;;;;;5110242;28;20043;-62
2023/03/12 02:53:58;;;;;;;9.00;5.10;;;;;;;;;;5110658;28;20095;-62
2023/03/12 02:56:25;;;;;;;9.70;5.57;;;;;;;;;;5110560;28;20473;-62
2023/03/12 02:58:51;;;;;;;7.53;4.95;;;;;;;;;;5109718;28;20099;-62
2023/03/12 03:01:17;;;;;;;9.35;5.80;;;;;;;;;;5110392;28;20032;-62
2023/03/12 03:03:43;;;;;;;9.18;5.70;;;;;;;;;;5110382;28;20138;-62
2023/03/12 03:06:09;;;;;;;6.95;4.80;;;;;;;;;;5109892;28;20071;-62
2023/03/12 03:08:35;;;;;;;7.60;5.70;;;;;;;;;;5110334;28;20040;-62
2023/03/12 03:11:02;;;;;;;8.65;5.38;;;;;;;;;;5110351;28;20438;-62
2023/03/12 03:13:29;;;;;;;14.07;5.47;;;;;;;;;;5109371;28;20540;-62
2023/03/12 03:15:57;;;;;;;10.68;5.20;;;;;;;;;;5110121;28;20096;-62
2023/03/12 03:18:23;;;;;;;11.18;5.95;;;;;;;;;;5110132;28;20547;-62
2023/03/12 03:20:57;;;;;;;7.35;4.45;;;;;;;;;;5109347;28;20107;-62
2023/03/12 03:23:23;;;;;;;7.53;4.78;;;;;;;;;;5106573;28;20032;-62
2023/03/12 03:25:51;;;;;;;9.85;5.03;;;;;;;;;;5077053;28;21198;-62
2023/03/12 03:28:18;;;;;;;7.22;4.10;;;;;;;;;;5089288;28;20044;-62
2023/03/12 03:30:44;;;;;;;10.73;5.40;;;;;;;;;;5089633;28;20040;-62
2023/03/12 03:33:10;;;;;;;10.52;5.10;;;;;;;;;;5089708;28;20127;-62
2023/03/12 03:35:36;;;;;;;12.13;5.35;;;;;;;;;;5088965;28;20127;-62
2023/03/12 03:38:03;;;;;;;8.80;4.95;;;;;;;;;;5089581;28;20048;-62
2023/03/12 03:40:29;;;;;;;9.18;5.30;;;;;;;;;;5071499;28;20075;-62
2023/03/12 03:42:55;;;;;;;11.98;5.13;;;;;;;;;;5089112;28;20064;-62
2023/03/12 03:45:21;;;;;;;8.68;4.90;;;;;;;;;;5089534;28;20131;-62
2023/03/12 03:47:47;;;;;;;8.02;5.05;;;;;;;;;;5080517;28;20115;-62
2023/03/12 03:50:13;;;;;;;9.90;4.97;;;;;;;;;;5068629;28;20497;-62
2023/03/12 03:52:39;;;;;;;10.48;5.53;;;;;;;;;;5069072;28;20044;-62
2023/03/12 03:55:05;;;;;;;9.57;5.80;;;;;;;;;;5069403;28;20040;-62
2023/03/12 03:57:31;;;;;;;11.13;5.05;;;;;;;;;;5068958;28;20075;-62
2023/03/12 04:00:00;;;;;;;10.48;4.95;;;;;;;;;;5069249;28;20169;-62
2023/03/12 04:02:26;;;;;;;11.90;5.30;;;;;;;;;;5069172;28;20048;-62
2023/03/12 04:04:52;;;;;;;10.98;5.35;;;;;;;;;;5068181;28;20043;-62
2023/03/12 04:07:20;;;;;;;11.77;5.25;;;;;;;;;;5068968;28;20097;-62
2023/03/12 04:09:46;;;;;;;8.05;5.30;;;;;;;;;;5068754;28;20051;-62
2023/03/12 04:12:12;;;;;;;9.95;5.18;;;;;;;;;;5068535;28;20037;-62
2023/03/12 04:14:41;;;;;;;11.45;5.32;;;;;;;;;;5069390;28;20041;-62
2023/03/12 04:17:07;;;;;;;9.60;5.55;;;;;;;;;;5069089;28;20033;-62
2023/03/12 04:19:34;;;;;;;13.43;5.80;;;;;;;;;;5068394;28;20083;-62
2023/03/12 04:22:00;;;;;;;7.78;5.07;;;;;;;;;;5050721;28;20290;-62
2023/03/12 04:24:26;;;;;;;10.23;5.22;;;;;;;;;;5081011;28;20059;-62
2023/03/12 04:26:52;;;;;;;9.88;5.60;;;;;;;;;;5074650;28;20028;-62
2023/03/12 04:29:18;;;;;;;7.25;5.15;;;;;;;;;;5072630;28;20039;-62
2023/03/12 04:31:44;;;;;;;10.02;5.40;;;;;;;;;;5072619;28;20394;-62
2023/03/12 04:34:11;;;;;;;9.02;5.18;;;;;;;;;;5072218;28;20041;-62
2023/03/12 04:36:37;;;;;;;11.25;5.45;;;;;;;;;;5072544;28;20095;-62
2023/03/12 04:39:06;;;;;;;8.82;6.10;;;;;;;;;;5072226;28;20495;-62
2023/03/12 04:41:32;;;;;;;7.30;4.72;;;;;;;;;;5071644;28;20093;-62
2023/03/12 04:43:58;;;;;;;11.93;5.13;;;;;;;;;;5071861;28;20036;-62
2023/03/12 04:46:24;;;;;;;9.20;5.00;;;;;;;;;;5072213;28;20037;-62
2023/03/12 04:48:50;;;;;;;6.95;5.20;;;;;;;;;;5089136;28;20047;-62
2023/03/12 04:51:16;;;;;;;11.20;5.38;;;;;;;;;;5092651;28;20477;-62
2023/03/12 04:53:43;;;;;;;9.13;5.20;;;;;;;;;;5092806;28;20435;-62
2023/03/12 04:56:09;;;;;;;11.38;5.05;;;;;;;;;;5092027;28;20496;-62
2023/03/12 04:58:35;;;;;;;8.70;5.25;;;;;;;;;;5092366;28;20082;-62
2023/03/12 05:01:01;;;;;;;8.95;5.30;;;;;;;;;;5074258;28;20053;-62
2023/03/12 05:03:27;;;;;;;6.55;4.75;;;;;;;;;;5091617;28;20075;-62
2023/03/12 05:05:53;;;;;;;10.40;4.97;;;;;;;;;;5092002;28;20044;-62
2023/03/12 05:08:19;;;;;;;9.57;5.68;;;;;;;;;;5092510;28;20040;-62
2023/03/12 05:10:45;;;;;;;9.30;5.50;;;;;;;;;;5091650;28;20040;-62
2023/03/12 05:13:13;;;;;;;10.32;5.25;;;;;;;;;;5091911;28;20093;-62
2023/03/12 05:15:39;;;;;;;8.50;4.82;;;;;;;;;;5091881;28;20036;-62
2023/03/12 05:18:05;;;;;;;7.55;4.82;;;;;;;;;;5091388;28;20036;-62
2023/03/12 05:20:31;;;;;;;11.27;4.90;;;;;;;;;;5091989;28;20493;-62
2023/03/12 05:22:57;;;;;;;9.35;5.10;;;;;;;;;;5091504;28;20135;-62
2023/03/12 05:25:22;;;;;;;9.73;4.45;;;;;;;;;;5086438;28;20094;-62
2023/03/12 05:27:48;;;;;;;7.85;4.97;;;;;;;;;;5071616;28;20071;-62
2023/03/12 05:30:14;;;;;;;9.93;5.50;;;;;;;;;;5071522;28;20032;-62
2023/03/12 05:32:41;;;;;;;8.77;4.82;;;;;;;;;;5053394;28;20051;-62
2023/03/12 05:35:08;;;;;;;9.30;5.22;;;;;;;;;;5071030;28;20044;-62
2023/03/12 05:37:34;;;;;;;10.02;5.05;;;;;;;;;;5071379;28;20052;-62
2023/03/12 05:40:00;;;;;;;8.45;5.47;;;;;;;;;;5070899;28;20166;-62
2023/03/12 05:42:26;;;;;;;9.52;5.35;;;;;;;;;;5070591;28;20120;-62
2023/03/12 05:44:52;;;;;;;9.88;5.10;;;;;;;;;;5071012;28;20495;-62
2023/03/12 05:47:18;;;;;;;9.77;5.10;;;;;;;;;;5076026;28;20102;-62
2023/03/12 05:49:44;;;;;;;11.23;5.43;;;;;;;;;;5090577;28;20470;-62
2023/03/12 05:52:11;;;;;;;15.35;5.97;;;;;;;;;;5091322;28;20085;-62
2023/03/12 05:54:37;;;;;;;9.35;5.15;;;;;;;;;;5091267;28;20436;-62
2023/03/12 05:57:03;;;;;;;8.95;5.28;;;;;;;;;;5090470;28;20044;-62
2023/03/12 05:59:29;;;;;;;11.45;5.55;;;;;;;;;;5091406;28;20071;-62
2023/03/12 06:01:55;;;;;;;11.95;5.45;;;;;;;;;;5091197;28;20051;-62
2023/03/12 06:04:21;;;;;;;11.27;6.20;;;;;;;;;;5090596;28;20059;-62
2023/03/12 06:06:47;;;;;;;17.27;6.10;;;;;;;;;;5091123;28;20089;-62
2023/03/12 06:09:13;;;;;;;11.50;6.10;;;;;;;;;;5090864;28;20048;-62
2023/03/12 06:11:39;;;;;;;8.90;5.90;;;;;;;;;;5090493;28;20115;-62
2023/03/12 06:14:05;;;;;;;13.40;6.00;;;;;;;;;;5090958;28;20040;-62
2023/03/12 06:16:31;;;;;;;10.65;6.20;;;;;;;;;;5090555;28;20051;-62
2023/03/12 06:18:59;;;;;;;10.25;5.63;;;;;;;;;;5089809;28;20098;-62
2023/03/12 06:21:26;;;;;;;10.77;6.18;;;;;;;;;;5090299;28;20048;-62
2023/03/12 06:23:52;;;;;;;13.35;6.60;;;;;;;;;;5090609;28;20526;-62
2023/03/12 06:26:19;;;;;;;10.90;5.93;;;;;;;;;;5077738;28;20037;-62
2023/03/12 06:28:46;;;;;;;15.65;6.50;;;;;;;;;;5070169;28;20112;-62
2023/03/12 06:31:12;;;;;;;9.50;6.03;;;;;;;;;;5070491;28;20445;-62
2023/03/12 06:33:38;;;;;;;10.93;5.78;;;;;;;;;;5069678;28;20132;-62
2023/03/12 06:36:05;;;;;;;9.70;5.53;;;;;;;;;;5070073;28;20048;-62
2023/03/12 06:38:31;;;;;;;11.38;6.20;;;;;;;;;;5070047;28;20044;-62
2023/03/12 06:40:59;;;;;;;12.27;5.82;;;;;;;;;;5069628;28;20043;-62
2023/03/12 06:43:26;;;;;;;11.25;5.75;;;;;;;;;;5069863;28;20094;-62
2023/03/12 06:45:53;;;;;;;12.65;6.22;;;;;;;;;;5069939;28;20033;-62
2023/03/12 06:48:19;;;;;;;10.07;5.88;;;;;;;;;;5082124;28;20047;-62
2023/03/12 06:50:45;;;;;;;13.60;6.43;;;;;;;;;;5090402;28;20040;-62
2023/03/12 06:53:11;;;;;;;12.05;6.10;;;;;;;;;;5090188;28;20105;-62
2023/03/12 06:55:37;;;;;;;10.55;6.25;;;;;;;;;;5089558;28;20139;-62
2023/03/12 06:58:03;;;;;;;12.02;6.35;;;;;;;;;;5089890;28;20346;-62
2023/03/12 07:00:30;;;;;;;15.23;6.30;;;;;;;;;;5090141;28;20036;-62
2023/03/12 07:02:56;;;;;;;8.32;5.63;;;;;;;;;;5071202;28;20043;-62
2023/03/12 07:05:22;;;;;;;12.63;6.50;;;;;;;;;;5090112;28;20042;-62
2023/03/12 07:07:48;;;;;;;9.88;6.22;;;;;;;;;;5089802;28;20032;-62
2023/03/12 07:10:15;;;;;;;14.00;6.65;;;;;;;;;;5089261;28;20038;-62
2023/03/12 07:12:41;;;;;;;15.45;7.13;;;;;;;;;;5089842;28;20035;-62
2023/03/12 07:15:07;;;;;;;15.25;6.45;;;;;;;;;;5089859;28;20044;-62
2023/03/12 07:17:33;;;;;;;8.85;6.45;;;;;;;;;;5071142;28;20044;-62
2023/03/12 07:19:59;;;;;;;8.68;6.18;;;;;;;;;;5089690;28;20047;-62
2023/03/12 07:22:25;;;;;;;12.63;6.60;;;;;;;;;;5089278;28;20405;-62
2023/03/12 07:24:51;;;;;;;13.40;7.05;;;;;;;;;;5089068;28;20142;-62
2023/03/12 07:27:17;;;;;;;11.20;6.70;;;;;;;;;;5089713;28;20501;-62
2023/03/12 07:29:44;;;;;;;13.25;7.97;;;;;;;;;;5089480;28;20075;-62
2023/03/12 07:32:10;;;;;;;17.00;9.25;;;;;;;;;;5088937;28;20046;-62
2023/03/12 07:34:36;;;;;;;17.02;8.85;;;;;;;;;;5089680;28;20079;-62
2023/03/12 07:37:02;;;;;;;12.75;7.90;;;;;;;;;;5089422;28;20072;-62
2023/03/12 07:39:28;;;;;;;11.57;7.50;;;;;;;;;;5089019;28;20089;-62
2023/03/12 07:41:54;;;;;;;12.32;7.90;;;;;;;;;;5089411;28;20040;-62
2023/03/12 07:44:20;;;;;;;11.07;6.80;;;;;;;;;;5089530;28;20044;-62
2023/03/12 07:46:46;;;;;;;13.95;7.50;;;;;;;;;;5088686;28;20060;-62
2023/03/12 07:49:12;;;;;;;15.05;8.30;;;;;;;;;;5089460;28;20397;-62
2023/03/12 07:51:38;;;;;;;12.25;7.93;;;;;;;;;;5089624;28;20077;-62
2023/03/12 07:54:04;;;;;;;11.90;6.78;;;;;;;;;;5088967;28;20040;-62
2023/03/12 07:56:30;;;;;;;13.20;7.55;;;;;;;;;;5089429;28;20526;-62
2023/03/12 07:58:56;;;;;;;15.15;7.78;;;;;;;;;;5089824;28;20032;-62
2023/03/12 08:01:24;;;;;;;14.25;7.20;;;;;;;;;;5092784;28;20093;-62
2023/03/12 08:03:50;;;;;;;13.50;7.60;;;;;;;;;;5075223;28;20079;-62
2023/03/12 08:06:16;;;;;;;10.52;6.63;;;;;;;;;;5093210;28;20036;-62
2023/03/12 08:08:42;;;;;;;11.93;6.90;;;;;;;;;;5092888;28;20032;-62
2023/03/12 08:11:08;;;;;;;13.65;7.22;;;;;;;;;;5093256;28;20108;-62
2023/03/12 08:13:34;;;;;;;14.10;7.07;;;;;;;;;;5093264;28;20328;-62
2023/03/12 08:16:00;;;;;;;12.73;7.00;;;;;;;;;;5092613;28;20300;-62
2023/03/12 08:18:26;;;;;;;12.93;6.82;;;;;;;;;;5092860;28;20036;-62
2023/03/12 08:20:53;;;;;;;9.60;6.40;;;;;;;;;;5093354;28;20118;-62
2023/03/12 08:23:20;;;;;;;10.93;7.05;;;;;;;;;;5089562;28;20040;-62
2023/03/12 08:25:46;;;;;;;11.77;6.82;;;;;;;;;;5080390;28;20553;-62
2023/03/12 08:28:12;;;;;;;10.57;6.50;;;;;;;;;;5092971;28;20036;-62
2023/03/12 08:30:38;;;;;;;11.98;6.60;;;;;;;;;;5092280;28;20490;-62
2023/03/12 08:33:04;;;;;;;11.77;6.63;;;;;;;;;;5092962;28;20036;-62
2023/03/12 08:35:30;;;;;;;12.50;6.75;;;;;;;;;;5093072;28;20448;-62
2023/03/12 08:37:56;;;;;;;11.25;6.35;;;;;;;;;;5092636;28;20044;-62
2023/03/12 08:40:23;;;;;;;10.00;6.60;;;;;;;;;;5092754;28;20184;-62
2023/03/12 08:42:49;;;;;;;13.95;6.40;;;;;;;;;;5092724;28;20348;-62
2023/03/12 08:45:15;;;;;;;9.93;6.32;;;;;;;;;;5092074;28;20047;-62
2023/03/12 08:47:43;;;;;;;13.88;5.95;;;;;;;;;;5084403;28;20371;-62
2023/03/12 08:50:10;;;;;;;10.52;6.10;;;;;;;;;;5072454;28;20048;-62
2023/03/12 08:52:36;;;;;;;10.35;5.75;;;;;;;;;;5071742;28;20044;-62
2023/03/12 08:55:02;;;;;;;9.48;5.88;;;;;;;;;;5072325;28;20048;-62
2023/03/12 08:57:28;;;;;;;13.07;5.32;;;;;;;;;;5072309;28;20040;-62
2023/03/12 08:59:54;;;;;;;10.15;6.15;;;;;;;;;;5071806;28;20045;-62
2023/03/12 09:02:20;;;;;;;11.23;6.10;;;;;;;;;;5071714;28;20506;-62
2023/03/12 09:04:50;;;;;;;10.80;6.28;;;;;;;;;;5072170;28;20091;-62
2023/03/12 09:07:17;;;;;;;12.68;6.97;;;;;;;;;;5071972;28;20063;-62
2023/03/12 09:09:44;;;;;;;15.80;7.20;;;;;;;;;;5071294;28;20269;-62
2023/03/12 09:12:10;;;;;;;12.63;6.97;;;;;;;;;;5053198;28;20115;-63
2023/03/12 09:14:36;;;;;;;10.85;6.45;;;;;;;;;;5071935;28;20408;-62
2023/03/12 09:17:02;;;;;;;14.68;7.78;;;;;;;;;;5071243;28;20041;-62
2023/03/12 09:19:28;;;;;;;11.48;5.90;;;;;;;;;;5071741;28;20127;-62
2023/03/12 09:21:54;;;;;;;11.57;6.68;;;;;;;;;;5071452;28;20044;-62
2023/03/12 09:24:20;;;;;;;9.55;6.63;;;;;;;;;;5082249;28;20052;-62
2023/03/12 09:26:47;;;;;;;8.70;6.50;;;;;;;;;;5075748;28;20044;-62
2023/03/12 09:29:13;;;;;;;14.50;6.38;;;;;;;;;;5071552;28;20493;-62
2023/03/12 09:31:39;;;;;;;8.93;6.40;;;;;;;;;;5070944;28;20036;-62
2023/03/12 09:34:05;;;;;;;9.60;6.43;;;;;;;;;;5071659;28;20498;-62
2023/03/12 09:36:31;;;;;;;11.48;7.15;;;;;;;;;;5071520;28;20041;-62
2023/03/12 09:38:57;;;;;;;11.40;7.30;;;;;;;;;;5070581;28;20174;-62
2023/03/12 09:41:28;;;;;;;9.13;6.38;;;;;;;;;;5071597;28;20040;-62
2023/03/12 09:44:17;;;;;;;10.70;7.95;;;;;;;;;;5071317;28;20405;-62
2023/03/12 09:46:48;;;;;;;9.65;7.97;;;;;;;;;;5060145;28;20059;-62
2023/03/12 09:49:37;;;;;;;12.15;7.70;;;;;;;;;;5071065;28;20033;-62
2023/03/12 09:52:07;;;;;;;12.65;7.50;;;;;;;;;;5070264;28;20402;-62
2023/03/12 09:54:37;;;;;;;14.77;8.20;;;;;;;;;;5070965;28;20538;-62
2023/03/12 09:57:08;;;;;;;10.45;8.35;;;;;;;;;;5070698;28;20049;-62
2023/03/12 09:59:35;;;;;;;11.00;9.35;;;;;;;;;;5052052;28;20280;-62
2023/03/12 10:02:05;;;;;;;13.50;8.57;;;;;;;;;;5070839;28;20115;-62
2023/03/12 10:04:45;;;;;;;13.40;8.45;;;;;;;;;;5070830;28;20043;-62
2023/03/12 10:07:14;;;;;;;11.95;8.80;;;;;;;;;;5070444;28;20072;-62
2023/03/12 10:09:59;;;;;;;10.85;9.18;;;;;;;;;;5070558;28;20044;-62
2023/03/12 10:12:25;;;;;;;11.48;8.77;;;;;;;;;;5070593;28;20041;-62
2023/03/12 10:15:10;;;;;;;13.13;8.43;;;;;;;;;;5069920;28;20037;-63
2023/03/12 10:18:03;;;;;;;13.88;9.27;;;;;;;;;;5070618;28;20036;-62
2023/03/12 10:20:35;;;;;;;15.15;8.93;;;;;;;;;;5070384;28;20136;-62
2023/03/12 10:23:07;;;;;;;13.63;9.10;;;;;;;;;;5068810;28;20053;-62
2023/03/12 10:25:47;;;;;;;11.23;8.95;;;;;;;;;;5090855;28;20032;-62
2023/03/12 10:28:21;;;;;;;12.88;9.80;;;;;;;;;;5090858;28;20027;-62
2023/03/12 10:31:07;;;;;;;14.82;9.85;;;;;;;;;;5090277;28;20369;-63
2023/03/12 10:33:40;;;;;;;13.70;9.93;;;;;;;;;;5090391;28;20728;-62
2023/03/12 10:36:13;;;;;;;14.38;9.88;;;;;;;;;;5090502;28;20044;-62
2023/03/12 10:38:38;;;;;;;13.82;10.00;;;;;;;;;;5090405;28;20120;-62
2023/03/12 10:41:15;;;;;;;12.85;10.15;;;;;;;;;;5090401;28;20439;-62
2023/03/12 10:43:41;;;;;;;16.85;10.30;;;;;;;;;;5089576;28;20043;-63
2023/03/12 10:46:26;;;;;;;11.57;9.48;;;;;;;;;;5090396;28;20583;-63
2023/03/12 10:49:12;;;;;;;12.30;9.57;;;;;;;;;;5072286;28;20040;-63
2023/03/12 10:51:53;;;;;;;17.35;11.02;;;;;;;;;;5069110;28;20570;-63
2023/03/12 10:54:26;;;;;;;14.30;10.13;;;;;;;;;;5070442;28;20055;-63
2023/03/12 10:56:52;;;;;;;14.55;9.65;;;;;;;;;;5070091;28;20040;-63
2023/03/12 10:59:22;;;;;;;14.20;9.85;;;;;;;;;;5051441;28;20047;-63
2023/03/12 11:01:50;;;;;;;18.98;10.40;;;;;;;;;;5069693;28;20044;-63
2023/03/12 11:04:17;;;;;;;15.48;9.82;;;;;;;;;;5069770;28;20039;-63
2023/03/12 11:07:01;;;;;;;17.30;10.38;;;;;;;;;;5069212;28;20076;-63
2023/03/12 11:09:27;;;;;;;17.13;10.43;;;;;;;;;;5069576;28;20042;-63
2023/03/12 11:11:53;;;;;;;16.90;11.02;;;;;;;;;;5069858;28;20044;-63
2023/03/12 11:14:21;;;;;;;15.38;10.55;;;;;;;;;;5069456;28;20058;-63
2023/03/12 11:16:47;;;;;;;16.15;10.93;;;;;;;;;;5069507;28;20052;-63
2023/03/12 11:19:15;;;;;;;14.68;10.13;;;;;;;;;;5069639;28;20036;-63
2023/03/12 11:21:53;;;;;;;13.77;10.35;;;;;;;;;;5068584;28;20044;-63
2023/03/12 11:24:19;;;;;;;17.27;11.07;;;;;;;;;;5062221;28;20095;-63
2023/03/12 11:27:00;;;;;;;14.77;10.80;;;;;;;;;;5073942;28;20513;-63
2023/03/12 11:29:26;;;;;;;15.65;11.80;;;;;;;;;;5069043;28;20064;-63
2023/03/12 11:32:02;;;;;;;16.77;11.35;;;;;;;;;;5069818;28;20086;-63
2023/03/12 11:34:32;;;;;;;20.45;11.38;;;;;;;;;;5069219;28;20043;-63
2023/03/12 11:37:16;;;;;;;17.80;12.20;;;;;;;;;;5068943;28;20044;-63
2023/03/12 11:39:58;;;;;;;19.50;12.55;;;;;;;;;;5069118;28;20048;-63
2023/03/12 11:42:24;;;;;;;18.38;12.10;;;;;;;;;;5069284;28;20091;-63
2023/03/12 11:45:09;;;;;;;19.88;12.15;;;;;;;;;;5068811;28;20094;-63
2023/03/12 11:47:34;;;;;;;19.20;11.45;;;;;;;;;;5076364;28;20394;-63
2023/03/12 11:50:03;;;;;;;18.80;12.98;;;;;;;;;;5089527;28;20247;-63
2023/03/12 11:52:44;;;;;;;22.17;12.55;;;;;;;;;;5089169;28;20088;-63
2023/03/12 11:55:16;;;;;;;20.77;12.30;;;;;;;;;;5089558;28;20052;-63
2023/03/12 11:57:51;;;;;;;19.65;12.43;;;;;;;;;;5088894;28;20032;-63
2023/03/12 12:00:19;;;;;;;22.88;13.65;;;;;;;;;;5089450;28;20145;-63
2023/03/12 12:02:54;;;;;;;23.73;13.75;;;;;;;;;;5089131;28;20036;-63
2023/03/12 12:05:39;;;;;;;21.08;14.40;;;;;;;;;;5088528;28;20044;-63
2023/03/12 12:08:12;;;;;;;23.23;14.07;;;;;;;;;;5089290;28;20082;-63
2023/03/12 12:10:44;;;;;;;23.17;13.65;;;;;;;;;;5089218;28;20119;-63
2023/03/12 12:13:13;;;;;;;23.70;14.40;;;;;;;;;;5089055;28;20047;-63
2023/03/12 12:15:49;;;;;;;26.60;14.50;;;;;;;;;;5070919;28;20765;-63
2023/03/12 12:18:28;;;;;;;23.45;14.80;;;;;;;;;;5089423;28;20432;-63
2023/03/12 12:21:13;;;;;;;25.10;15.90;;;;;;;;;;5088437;28;20094;-63
2023/03/12 12:23:50;;;;;;;25.67;15.52;;;;;;;;;;5088877;28;20147;-63
2023/03/12 12:26:52;;;;;;;30.67;15.80;;;;;;;;;;5077635;28;20036;-63
2023/03/12 12:29:18;;;;;;;29.77;16.90;;;;;;;;;;4986112;28;20038;-63
2023/03/12 12:32:04;;;;;;;32.97;17.52;;;;;;;;;;5052249;28;20044;-63
2023/03/12 12:34:30;;;;;;;32.80;16.48;;;;;;;;;;5068319;28;20093;-63
2023/03/12 12:37:19;;;;;;;35.38;16.65;;;;;;;;;;5068624;28;20048;-63
2023/03/12 12:39:49;;;;;;;36.13;17.25;;;;;;;;;;5057796;28;20135;-63
2023/03/12 12:42:20;;;;;;;30.27;16.65;;;;;;;;;;5068104;28;20045;-63
2023/03/12 12:44:48;;;;;;;31.55;15.38;;;;;;;;;;5068830;28;20037;-63
2023/03/12 12:47:18;;;;;;;37.58;16.65;;;;;;;;;;5075230;28;20035;-63
2023/03/12 12:49:48;;;;;;;37.03;16.90;;;;;;;;;;5091708;28;20478;-63
2023/03/12 12:52:21;;;;;;;28.77;16.35;;;;;;;;;;5092524;28;20043;-63
2023/03/12 12:55:06;;;;;;;33.90;16.67;;;;;;;;;;5092515;28;20547;-63
2023/03/12 12:57:34;;;;;;;31.55;16.95;;;;;;;;;;5091664;28;20086;-63
2023/03/12 13:00:10;;;;;;;37.95;18.08;;;;;;;;;;5092102;28;20119;-63
2023/03/12 13:02:38;;;;;;;37.47;17.73;;;;;;;;;;5092138;28;20044;-63
2023/03/12 13:05:16;;;;;;;33.58;16.13;;;;;;;;;;5091672;28;20032;-63
2023/03/12 13:07:42;;;;;;;31.38;17.10;;;;;;;;;;5092347;28;20040;-63
2023/03/12 13:10:28;;;;;;;33.28;16.23;;;;;;;;;;5092147;28;20036;-63
2023/03/12 13:12:55;;;;;;;33.65;16.88;;;;;;;;;;5091304;28;20074;-63
2023/03/12 13:15:28;;;;;;;39.92;19.38;;;;;;;;;;5092141;28;20036;-63
2023/03/12 13:18:04;;;;;;;38.78;17.05;;;;;;;;;;5092085;28;20036;-63
2023/03/12 13:20:43;;;;;;;44.95;18.08;;;;;;;;;;5091246;28;20122;-63
2023/03/12 13:23:28;;;;;;;41.22;18.45;;;;;;;;;;5091593;28;20052;-63
2023/03/12 13:26:07;;;;;;;46.78;19.20;;;;;;;;;;5083194;28;20036;-63
2023/03/12 13:28:51;;;;;;;51.60;20.88;;;;;;;;;;5070965;28;20399;-63
2023/03/12 13:31:20;;;;;;;55.17;20.58;;;;;;;;;;5071757;28;20120;-63
2023/03/12 13:33:47;;;;;;;55.58;20.52;;;;;;;;;;5071465;28;20102;-63
2023/03/12 13:36:21;;;;;;;52.88;22.05;;;;;;;;;;5071289;28;20040;-63
2023/03/12 13:38:57;;;;;;;59.03;21.85;;;;;;;;;;5071128;28;20075;-63
2023/03/12 13:41:50;;;;;;;62.30;21.38;;;;;;;;;;5070757;28;20074;-63
2023/03/12 13:44:26;;;;;;;63.70;20.92;;;;;;;;;;5068004;28;20053;-63
2023/03/12 13:47:10;;;;;;;54.38;17.95;;;;;;;;;;5072304;28;20302;-63
2023/03/12 13:49:51;;;;;;;71.72;20.42;;;;;;;;;;5090769;28;20036;-63
2023/03/12 13:52:21;;;;;;;57.50;20.75;;;;;;;;;;5091534;28;20085;-63
2023/03/12 13:54:50;;;;;;;59.33;20.90;;;;;;;;;;5091569;28;20036;-63
2023/03/12 13:57:37;;;;;;;62.00;21.27;;;;;;;;;;5090405;28;20390;-63
2023/03/12 14:00:05;;;;;;;67.35;20.73;;;;;;;;;;5090897;28;20047;-63
2023/03/12 14:02:36;;;;;;;60.28;21.33;;;;;;;;;;5091085;28;20533;-63
2023/03/12 14:05:07;;;;;;;48.92;19.70;;;;;;;;;;5090772;28;20036;-63
2023/03/12 14:07:51;;;;;;;64.60;20.73;;;;;;;;;;5091220;28;20493;-63
2023/03/12 14:10:22;;;;;;;55.35;19.75;;;;;;;;;;5091064;28;20432;-63
2023/03/12 14:13:06;;;;;;;60.35;19.83;;;;;;;;;;5090635;28;20036;-63
2023/03/12 14:15:35;;;;;;;60.53;19.77;;;;;;;;;;5091101;28;20083;-63
2023/03/12 14:18:03;;;;;;;62.92;18.25;;;;;;;;;;5091116;28;20401;-63
2023/03/12 14:20:30;;;;;;;53.63;17.52;;;;;;;;;;5090249;28;20092;-63
2023/03/12 14:23:02;;;;;;;48.58;15.88;;;;;;;;;;5090295;28;20044;-63
2023/03/12 14:25:28;;;;;;;;;;;;;;;;;;5075928;28;20076;-63
2023/03/12 14:27:54;;;;;;;53.22;15.48;;;;;;;;;;5090323;28;19971;-63
2023/03/12 14:30:25;;;;;;;49.55;13.93;;;;;;;;;;5090532;28;20051;-63
2023/03/12 14:32:53;;;;;;;36.92;12.95;;;;;;;;;;5090258;28;20040;-63
2023/03/12 14:35:28;;;;;;;51.92;12.60;;;;;;;;;;5090054;28;20043;-63
2023/03/12 14:38:11;;;;;;;43.85;11.85;;;;;;;;;;5090782;28;20127;-63
2023/03/12 14:40:45;;;;;;;51.45;12.13;;;;;;;;;;5089737;28;20401;-63